createdAt,value
2022-10-07T00:01:03.658Z,10.70
2022-10-07T00:03:31.532Z,10.70
2022-10-07T00:06:13.603Z,10.60
2022-10-07T00:08:44.084Z,10.60
2022-10-07T00:11:26.188Z,10.50
2022-10-07T00:13:59.176Z,10.50
2022-10-07T00:16:36.845Z,10.50
2022-10-07T00:19:08.671Z,10.50
2022-10-07T00:21:37.733Z,10.50
2022-10-07T00:24:07.176Z,10.50
2022-10-07T00:26:36.243Z,10.50
2022-10-07T00:29:06.292Z,10.40
2022-10-07T00:31:36.764Z,10.40
2022-10-07T00:34:05.367Z,10.30
2022-10-07T00:36:35.814Z,10.20
2022-10-07T00:39:08.142Z,10.10
2022-10-07T00:41:45.232Z,10.00
2022-10-07T00:44:36.086Z,10.00
2022-10-07T00:47:28.149Z,9.90
2022-10-07T00:50:08.041Z,9.80
2022-10-07T00:52:59.383Z,9.80
2022-10-07T00:55:30.347Z,9.70
2022-10-07T00:58:02.145Z,9.70
2022-10-07T01:00:30.215Z,9.70
2022-10-07T01:02:57.250Z,9.60
2022-10-07T01:05:25.011Z,9.60
2022-10-07T01:07:54.890Z,9.50
2022-10-07T01:10:31.917Z,9.50
2022-10-07T01:13:09.107Z,9.50
2022-10-07T01:16:08.154Z,9.40
2022-10-07T01:18:49.530Z,9.40
2022-10-07T01:21:31.090Z,9.40
2022-10-07T01:24:11.208Z,9.40
2022-10-07T01:26:58.561Z,9.40
2022-10-07T01:29:53.588Z,9.30
2022-10-07T01:32:54.110Z,9.30
2022-10-07T01:35:28.200Z,9.30
2022-10-07T01:38:00.560Z,9.20
2022-10-07T01:40:37.371Z,9.20
2022-10-07T01:43:06.533Z,9.20
2022-10-07T01:45:38.046Z,9.20
2022-10-07T01:48:05.116Z,9.20
2022-10-07T01:50:33.989Z,9.20
2022-10-07T01:53:20.283Z,9.10
2022-10-07T01:56:26.836Z,9.10
2022-10-07T01:59:21.299Z,9.10
2022-10-07T02:01:57.704Z,9.10
2022-10-07T02:04:59.148Z,9.10
2022-10-07T02:07:45.351Z,9.10
2022-10-07T02:10:31.870Z,9.10
2022-10-07T02:13:56.298Z,9.10
2022-10-07T02:16:39.802Z,9.00
2022-10-07T02:19:17.564Z,9.00
2022-10-07T02:21:47.039Z,8.90
2022-10-07T02:24:15.800Z,8.90
2022-10-07T02:26:45.865Z,9.00
2022-10-07T02:29:16.344Z,8.90
2022-10-07T02:31:46.111Z,8.90
2022-10-07T02:34:20.178Z,8.90
2022-10-07T02:37:20.108Z,8.80
2022-10-07T02:39:48.279Z,8.80
2022-10-07T02:42:33.558Z,8.80
2022-10-07T02:45:15.764Z,8.80
2022-10-07T02:47:55.761Z,8.70
2022-10-07T02:50:27.779Z,8.80
2022-10-07T02:52:56.300Z,8.80
2022-10-07T02:55:27.661Z,8.70
2022-10-07T02:57:59.435Z,8.80
2022-10-07T03:00:30.321Z,8.70
2022-10-07T03:03:02.649Z,8.70
2022-10-07T03:05:42.188Z,8.70
2022-10-07T03:08:11.242Z,8.70
2022-10-07T03:10:40.727Z,8.70
2022-10-07T03:13:09.244Z,8.60
2022-10-07T03:15:42.654Z,8.60
2022-10-07T03:18:26.619Z,8.60
2022-10-07T03:21:01.126Z,8.60
2022-10-07T03:23:29.598Z,8.50
2022-10-07T03:25:58.490Z,8.50
2022-10-07T03:28:29.809Z,8.50
2022-10-07T03:31:08.697Z,8.50
2022-10-07T03:33:38.685Z,8.50
2022-10-07T03:36:08.406Z,8.60
2022-10-07T03:38:36.574Z,8.60
2022-10-07T03:41:04.915Z,8.60
2022-10-07T03:43:33.647Z,8.60
2022-10-07T03:46:02.509Z,8.60
2022-10-07T03:48:31.799Z,8.50
2022-10-07T03:50:59.498Z,8.50
2022-10-07T03:53:29.783Z,8.40
2022-10-07T03:55:58.677Z,8.40
2022-10-07T03:58:25.782Z,8.40
2022-10-07T04:00:52.776Z,8.40
2022-10-07T04:03:20.179Z,8.40
2022-10-07T04:06:02.411Z,8.40
2022-10-07T04:08:33.183Z,8.50
2022-10-07T04:11:03.637Z,8.50
2022-10-07T04:13:31.865Z,8.50
2022-10-07T04:15:59.543Z,8.60
2022-10-07T04:18:27.199Z,8.50
2022-10-07T04:20:55.045Z,8.50
2022-10-07T04:23:22.376Z,8.40
2022-10-07T04:25:50.257Z,8.40
2022-10-07T04:28:24.242Z,8.30
2022-10-07T04:30:56.259Z,8.30
2022-10-07T04:33:30.340Z,8.20
2022-10-07T04:36:12.833Z,8.20
2022-10-07T04:38:58.764Z,8.20
2022-10-07T04:41:30.876Z,8.20
2022-10-07T04:43:58.253Z,8.20
2022-10-07T04:46:28.817Z,8.30
2022-10-07T04:49:05.475Z,8.30
2022-10-07T04:51:33.086Z,8.30
2022-10-07T04:54:01.249Z,8.40
2022-10-07T04:56:34.200Z,8.50
2022-10-07T04:59:04.231Z,8.50
2022-10-07T05:01:31.436Z,8.50
2022-10-07T05:03:59.603Z,8.50
2022-10-07T05:06:27.436Z,8.50
2022-10-07T05:08:54.570Z,8.50
2022-10-07T05:11:23.140Z,8.40
2022-10-07T05:14:02.078Z,8.40
2022-10-07T05:16:30.998Z,8.40
2022-10-07T05:18:58.725Z,8.40
2022-10-07T05:21:25.813Z,8.40
2022-10-07T05:23:52.853Z,8.40
2022-10-07T05:26:25.503Z,8.40
2022-10-07T05:28:57.500Z,8.40
2022-10-07T05:31:31.230Z,8.40
2022-10-07T05:34:02.907Z,8.40
2022-10-07T05:36:30.078Z,8.40
2022-10-07T05:38:59.276Z,8.40
2022-10-07T05:41:44.991Z,8.40
2022-10-07T05:44:14.371Z,8.50
2022-10-07T05:46:42.525Z,8.50
2022-10-07T05:49:10.067Z,8.50
2022-10-07T05:51:37.177Z,8.50
2022-10-07T05:54:04.713Z,8.50
2022-10-07T05:56:39.005Z,8.50
2022-10-07T05:59:07.150Z,8.50
2022-10-07T06:01:35.013Z,8.50
2022-10-07T06:04:08.144Z,8.50
2022-10-07T06:06:38.682Z,8.60
2022-10-07T06:09:27.338Z,8.60
2022-10-07T06:12:33.674Z,8.60
2022-10-07T06:15:05.517Z,8.70
2022-10-07T06:17:32.918Z,8.80
2022-10-07T06:20:02.381Z,8.80
2022-10-07T06:22:29.677Z,8.90
2022-10-07T06:24:58.813Z,9.00
2022-10-07T06:27:26.391Z,9.10
2022-10-07T06:29:54.411Z,9.10
2022-10-07T06:32:21.968Z,9.20
2022-10-07T06:34:49.654Z,9.30
2022-10-07T06:37:16.858Z,9.40
2022-10-07T06:39:44.793Z,9.40
2022-10-07T06:42:12.665Z,9.50
2022-10-07T06:44:58.343Z,9.60
2022-10-07T06:47:25.570Z,9.70
2022-10-07T06:49:52.503Z,9.80
2022-10-07T06:52:19.719Z,10.00
2022-10-07T06:54:47.359Z,10.10
2022-10-07T06:57:40.388Z,10.30
2022-10-07T07:00:01.655Z,10.40
2022-10-07T07:02:31.125Z,10.60
2022-10-07T07:04:59.760Z,10.70
2022-10-07T07:07:27.284Z,10.80
2022-10-07T07:09:54.722Z,11.00
2022-10-07T07:12:25.194Z,11.10
2022-10-07T07:14:53.223Z,11.20
2022-10-07T07:17:21.326Z,11.20
2022-10-07T07:19:48.282Z,11.30
2022-10-07T07:22:16.255Z,11.30
2022-10-07T07:24:43.826Z,11.40
2022-10-07T07:27:14.381Z,11.40
2022-10-07T07:29:41.592Z,11.60
2022-10-07T07:32:08.534Z,11.70
2022-10-07T07:34:39.239Z,11.80
2022-10-07T07:37:12.901Z,11.80
2022-10-07T07:39:45.254Z,11.90
2022-10-07T07:42:15.388Z,12.10
2022-10-07T07:44:43.235Z,12.20
2022-10-07T07:47:12.784Z,12.30
2022-10-07T07:49:40.035Z,12.40
2022-10-07T07:52:10.433Z,12.50
2022-10-07T07:54:45.142Z,12.70
2022-10-07T07:57:12.452Z,12.90
2022-10-07T07:59:39.589Z,13.00
2022-10-07T08:02:10.686Z,13.20
2022-10-07T08:04:38.977Z,13.30
2022-10-07T08:07:07.526Z,13.40
2022-10-07T08:09:34.609Z,13.50
2022-10-07T08:12:02.155Z,13.50
2022-10-07T08:14:30.151Z,13.50
2022-10-07T08:16:59.120Z,13.70
2022-10-07T08:19:29.398Z,13.70
2022-10-07T08:21:58.153Z,13.80
2022-10-07T08:24:27.831Z,13.90
2022-10-07T08:26:54.825Z,14.00
2022-10-07T08:29:22.776Z,14.10
2022-10-07T08:31:50.018Z,14.20
2022-10-07T08:34:17.165Z,14.40
2022-10-07T08:36:47.287Z,14.40
2022-10-07T08:39:15.546Z,14.40
2022-10-07T08:42:42.824Z,14.50
2022-10-07T08:45:31.731Z,14.60
2022-10-07T08:48:07.550Z,14.80
2022-10-07T08:51:07.211Z,14.80
2022-10-07T08:53:37.639Z,15.00
2022-10-07T08:56:23.305Z,15.00
2022-10-07T08:59:32.128Z,15.20
2022-10-07T09:02:23.780Z,15.40
2022-10-07T09:04:56.658Z,15.50
2022-10-07T09:07:57.429Z,15.50
2022-10-07T09:10:34.740Z,15.50
2022-10-07T09:13:18.518Z,15.60
2022-10-07T09:16:12.154Z,15.70
2022-10-07T09:18:59.815Z,15.70
2022-10-07T09:21:46.125Z,15.90
2022-10-07T09:24:17.904Z,16.30
2022-10-07T09:26:44.885Z,16.50
2022-10-07T09:29:12.066Z,16.50
2022-10-07T09:31:40.069Z,16.60
2022-10-07T09:34:22.150Z,16.60
2022-10-07T09:37:16.730Z,16.80
2022-10-07T09:39:45.794Z,16.80
2022-10-07T09:42:43.110Z,16.90
2022-10-07T09:45:29.022Z,17.00
2022-10-07T09:48:04.501Z,17.10
2022-10-07T09:50:43.558Z,17.20
2022-10-07T09:53:28.014Z,17.10
2022-10-07T09:55:55.589Z,17.30
2022-10-07T09:58:30.546Z,17.40
2022-10-07T10:01:01.327Z,17.40
2022-10-07T10:03:37.007Z,17.30
2022-10-07T10:06:09.371Z,17.40
2022-10-07T10:08:41.856Z,17.60
2022-10-07T10:11:21.026Z,17.70
2022-10-07T10:13:50.413Z,17.70
2022-10-07T10:16:37.831Z,17.50
2022-10-07T10:19:27.383Z,17.40
2022-10-07T10:21:56.903Z,17.30
2022-10-07T10:24:44.305Z,17.40
2022-10-07T10:27:29.710Z,17.70
2022-10-07T10:30:06.622Z,17.90
2022-10-07T10:33:25.755Z,18.00
2022-10-07T10:36:19.201Z,18.00
2022-10-07T10:39:04.434Z,18.20
2022-10-07T10:42:05.641Z,18.10
2022-10-07T10:45:14.196Z,18.00
2022-10-07T10:47:54.107Z,18.20
2022-10-07T10:50:35.505Z,18.10
2022-10-07T10:53:20.334Z,18.10
2022-10-07T10:56:16.053Z,18.10
2022-10-07T10:59:12.704Z,18.10
2022-10-07T11:01:43.125Z,18.30
2022-10-07T11:04:38.585Z,18.40
2022-10-07T11:07:30.707Z,18.60
2022-10-07T11:10:04.775Z,18.70
2022-10-07T11:12:39.479Z,18.70
2022-10-07T11:15:34.918Z,18.80
2022-10-07T11:18:10.443Z,19.00
2022-10-07T11:20:47.974Z,19.10
2022-10-07T11:23:37.906Z,19.10
2022-10-07T11:26:19.009Z,19.10
2022-10-07T11:28:47.219Z,18.90
2022-10-07T11:31:35.397Z,18.90
2022-10-07T11:34:40.412Z,19.00
2022-10-07T11:37:21.842Z,19.10
2022-10-07T11:39:49.869Z,19.10
2022-10-07T11:42:24.509Z,19.00
2022-10-07T11:45:08.924Z,19.00
2022-10-07T11:47:45.472Z,19.00
2022-10-07T11:50:31.654Z,19.20
2022-10-07T11:53:25.878Z,19.40
2022-10-07T11:56:06.928Z,19.50
2022-10-07T11:58:37.891Z,19.50
2022-10-07T12:01:28.556Z,19.50
2022-10-07T12:04:17.179Z,19.40
2022-10-07T12:07:40.668Z,19.30
2022-10-07T12:10:41.181Z,19.40
2022-10-07T12:13:11.140Z,19.60
2022-10-07T12:15:45.046Z,19.60
2022-10-07T12:18:28.596Z,19.80
2022-10-07T12:21:03.850Z,20.00
2022-10-07T12:23:36.707Z,20.30
2022-10-07T12:26:33.071Z,20.30
2022-10-07T12:29:00.251Z,20.00
2022-10-07T12:31:33.362Z,19.50
2022-10-07T12:34:06.069Z,19.30
2022-10-07T12:36:33.486Z,19.60
2022-10-07T12:39:03.178Z,19.70
2022-10-07T12:41:40.138Z,19.70
2022-10-07T12:44:43.946Z,19.90
2022-10-07T12:47:22.634Z,20.10
2022-10-07T12:50:01.250Z,20.20
2022-10-07T12:52:55.448Z,20.20
2022-10-07T12:55:33.654Z,20.50
2022-10-07T12:58:21.785Z,20.50
2022-10-07T13:01:42.276Z,20.50
2022-10-07T13:04:42.271Z,20.30
2022-10-07T13:07:43.656Z,20.20
2022-10-07T13:10:53.468Z,20.30
2022-10-07T13:13:41.007Z,20.50
2022-10-07T13:16:32.059Z,20.60
2022-10-07T13:19:28.061Z,20.50
2022-10-07T13:22:12.860Z,20.30
2022-10-07T13:24:46.975Z,20.40
2022-10-07T13:27:34.718Z,20.40
2022-10-07T13:30:04.695Z,20.50
2022-10-07T13:32:34.244Z,20.60
2022-10-07T13:35:30.049Z,20.70
2022-10-07T13:37:57.120Z,20.90
2022-10-07T13:40:35.240Z,21.00
2022-10-07T13:43:07.025Z,21.00
2022-10-07T13:45:46.031Z,20.80
2022-10-07T13:48:19.338Z,20.70
2022-10-07T13:50:48.216Z,20.70
2022-10-07T13:53:30.797Z,20.90
2022-10-07T13:56:40.680Z,21.00
2022-10-07T13:59:18.078Z,21.20
2022-10-07T14:01:50.090Z,21.30
2022-10-07T14:04:27.023Z,21.40
2022-10-07T14:07:13.479Z,21.20
2022-10-07T14:09:50.780Z,20.80
2022-10-07T14:12:26.177Z,20.80
2022-10-07T14:15:00.546Z,21.00
2022-10-07T14:17:47.521Z,21.10
2022-10-07T14:20:20.449Z,21.20
2022-10-07T14:22:53.358Z,21.00
2022-10-07T14:25:28.701Z,20.90
2022-10-07T14:27:58.817Z,20.80
2022-10-07T14:30:56.297Z,20.70
2022-10-07T14:34:08.806Z,20.80
2022-10-07T14:36:36.296Z,20.80
2022-10-07T14:39:32.866Z,20.60
2022-10-07T14:41:59.995Z,20.50
2022-10-07T14:44:28.798Z,20.60
2022-10-07T14:47:28.770Z,20.70
2022-10-07T14:49:58.236Z,20.50
2022-10-07T14:52:42.058Z,20.20
2022-10-07T14:55:21.158Z,19.90
2022-10-07T14:57:48.290Z,19.70
2022-10-07T15:00:20.295Z,19.70
2022-10-07T15:02:50.353Z,19.70
2022-10-07T15:05:18.768Z,19.70
2022-10-07T15:07:46.364Z,19.70
2022-10-07T15:10:16.548Z,19.70
2022-10-07T15:12:44.465Z,19.70
2022-10-07T15:15:13.613Z,19.60
2022-10-07T15:17:42.069Z,19.60
2022-10-07T15:20:12.600Z,19.70
2022-10-07T15:22:40.062Z,19.60
2022-10-07T15:25:09.343Z,19.50
2022-10-07T15:27:37.644Z,19.50
2022-10-07T15:30:08.993Z,19.50
2022-10-07T15:32:36.252Z,19.50
2022-10-07T15:35:03.414Z,19.50
2022-10-07T15:37:32.283Z,19.50
2022-10-07T15:39:59.313Z,19.50
2022-10-07T15:42:26.847Z,19.40
2022-10-07T15:44:54.148Z,19.30
2022-10-07T15:47:21.417Z,19.10
2022-10-07T15:49:49.571Z,19.00
2022-10-07T15:52:16.931Z,18.90
2022-10-07T15:54:46.231Z,18.80
2022-10-07T15:57:14.314Z,18.70
2022-10-07T15:59:42.180Z,18.60
2022-10-07T16:02:16.305Z,18.50
2022-10-07T16:04:45.016Z,18.40
2022-10-07T16:07:12.059Z,18.40
2022-10-07T16:09:39.324Z,18.30
2022-10-07T16:12:07.267Z,18.30
2022-10-07T16:14:34.631Z,18.30
2022-10-07T16:17:01.737Z,18.20
2022-10-07T16:19:28.771Z,18.20
2022-10-07T16:21:55.717Z,18.10
2022-10-07T16:24:23.476Z,18.10
2022-10-07T16:26:51.029Z,18.10
2022-10-07T16:29:40.411Z,18.00
2022-10-07T16:32:12.769Z,17.90
2022-10-07T16:34:43.398Z,17.90
2022-10-07T16:37:11.914Z,17.80
2022-10-07T16:39:38.813Z,17.80
2022-10-07T16:42:06.455Z,17.80
2022-10-07T16:44:33.453Z,17.80
2022-10-07T16:47:01.147Z,17.80
2022-10-07T16:49:30.148Z,17.60
2022-10-07T16:51:58.200Z,17.50
2022-10-07T16:54:26.056Z,17.40
2022-10-07T16:56:53.449Z,17.40
2022-10-07T16:59:24.221Z,17.30
2022-10-07T17:01:55.382Z,17.20
2022-10-07T17:04:23.165Z,17.10
2022-10-07T17:06:50.422Z,17.10
2022-10-07T17:09:18.342Z,17.00
2022-10-07T17:11:45.927Z,16.90
2022-10-07T17:14:19.654Z,16.70
2022-10-07T17:16:53.787Z,16.60
2022-10-07T17:19:24.984Z,16.50
2022-10-07T17:21:53.863Z,16.50
2022-10-07T17:24:22.752Z,16.40
2022-10-07T17:26:50.529Z,16.30
2022-10-07T17:29:20.697Z,16.30
2022-10-07T17:31:50.567Z,16.20
2022-10-07T17:34:19.960Z,16.10
2022-10-07T17:36:47.989Z,16.10
2022-10-07T17:39:15.906Z,15.90
2022-10-07T17:41:43.114Z,15.90
2022-10-07T17:44:12.159Z,15.80
2022-10-07T17:46:40.961Z,15.70
2022-10-07T17:49:13.297Z,15.60
2022-10-07T17:51:42.565Z,15.50
2022-10-07T17:54:13.288Z,15.40
2022-10-07T17:56:40.517Z,15.40
2022-10-07T17:59:07.603Z,15.30
2022-10-07T18:01:35.798Z,15.20
2022-10-07T18:04:07.251Z,15.20
2022-10-07T18:06:36.800Z,15.10
2022-10-07T18:09:09.146Z,15.20
2022-10-07T18:11:55.168Z,15.20
2022-10-07T18:14:41.502Z,15.30
2022-10-07T18:17:10.290Z,15.50
2022-10-07T18:19:39.539Z,15.50
2022-10-07T18:22:07.179Z,15.40
2022-10-07T18:24:34.261Z,15.30
2022-10-07T18:27:01.770Z,15.20
2022-10-07T18:29:37.415Z,15.10
2022-10-07T18:32:08.104Z,15.00
2022-10-07T18:34:35.454Z,14.90
2022-10-07T18:37:02.662Z,14.90
2022-10-07T18:39:29.975Z,14.90
2022-10-07T18:41:58.241Z,14.90
2022-10-07T18:44:25.770Z,14.90
2022-10-07T18:46:53.216Z,14.80
2022-10-07T18:49:20.200Z,14.80
2022-10-07T18:51:50.266Z,14.70
2022-10-07T18:54:18.632Z,14.70
2022-10-07T18:56:47.936Z,14.60
2022-10-07T18:59:15.234Z,14.50
2022-10-07T19:01:44.383Z,14.50
2022-10-07T19:04:14.850Z,14.40
2022-10-07T19:06:44.616Z,14.30
2022-10-07T19:09:15.984Z,14.30
2022-10-07T19:11:42.925Z,14.30
2022-10-07T19:14:10.775Z,14.30
2022-10-07T19:16:43.643Z,14.20
2022-10-07T19:19:13.693Z,14.10
2022-10-07T19:21:40.801Z,14.00
2022-10-07T19:24:08.056Z,13.90
2022-10-07T19:26:42.701Z,14.00
2022-10-07T19:29:10.822Z,14.10
2022-10-07T19:31:41.773Z,14.20
2022-10-07T19:34:22.115Z,14.10
2022-10-07T19:36:50.221Z,14.10
2022-10-07T19:39:22.251Z,14.10
2022-10-07T19:41:50.911Z,14.10
2022-10-07T19:44:18.619Z,13.90
2022-10-07T19:46:51.537Z,13.80
2022-10-07T19:49:18.666Z,13.70
2022-10-07T19:51:45.567Z,13.70
2022-10-07T19:54:13.083Z,13.60
2022-10-07T19:56:41.109Z,13.60
2022-10-07T19:59:11.539Z,13.60
2022-10-07T20:01:42.120Z,13.60
2022-10-07T20:04:14.075Z,13.40
2022-10-07T20:06:41.811Z,13.30
2022-10-07T20:09:13.123Z,13.20
2022-10-07T20:11:40.357Z,13.10
2022-10-07T20:14:07.751Z,13.10
2022-10-07T20:16:36.527Z,13.10
2022-10-07T20:19:07.024Z,13.00
2022-10-07T20:21:37.064Z,13.00
2022-10-07T20:24:06.371Z,13.10
2022-10-07T20:26:36.961Z,13.10
2022-10-07T20:29:06.501Z,13.10
2022-10-07T20:31:36.913Z,13.20
2022-10-07T20:34:04.511Z,13.30
2022-10-07T20:36:34.792Z,13.30
2022-10-07T20:39:25.598Z,13.30
2022-10-07T20:42:12.870Z,13.30
2022-10-07T20:44:40.026Z,13.40
2022-10-07T20:47:09.524Z,13.30
2022-10-07T20:49:38.885Z,13.40
2022-10-07T20:52:10.963Z,13.40
2022-10-07T20:54:37.948Z,13.40
2022-10-07T20:57:05.969Z,13.40
2022-10-07T20:59:33.462Z,13.50
2022-10-07T21:02:03.880Z,13.50
2022-10-07T21:04:33.522Z,13.50
2022-10-07T21:07:01.601Z,13.50
2022-10-07T21:09:28.843Z,13.50
2022-10-07T21:11:57.878Z,13.40
2022-10-07T21:14:24.842Z,13.40
2022-10-07T21:16:53.362Z,13.40
2022-10-07T21:19:20.571Z,13.30
2022-10-07T21:21:47.462Z,13.30
2022-10-07T21:24:14.609Z,13.30
2022-10-07T21:26:41.650Z,13.20
2022-10-07T21:29:11.351Z,13.10
2022-10-07T21:31:38.352Z,13.00
2022-10-07T21:34:07.987Z,13.00
2022-10-07T21:36:38.962Z,13.00
2022-10-07T21:39:07.160Z,13.00
2022-10-07T21:41:37.482Z,13.10
2022-10-07T21:44:11.509Z,13.20
2022-10-07T21:46:42.085Z,13.20
2022-10-07T21:49:09.235Z,13.20
2022-10-07T21:51:36.230Z,13.20
2022-10-07T21:54:04.159Z,13.10
2022-10-07T21:56:32.833Z,13.10
2022-10-07T21:59:04.259Z,13.10
2022-10-07T22:01:32.387Z,13.10
2022-10-07T22:04:03.370Z,13.00
2022-10-07T22:06:50.532Z,13.00
2022-10-07T22:09:20.844Z,12.90
2022-10-07T22:11:48.728Z,12.80
2022-10-07T22:14:16.512Z,12.70
2022-10-07T22:16:44.834Z,12.60
2022-10-07T22:19:12.123Z,12.50
2022-10-07T22:21:41.350Z,12.40
2022-10-07T22:24:09.052Z,12.40
2022-10-07T22:26:45.755Z,12.30
2022-10-07T22:29:16.881Z,12.30
2022-10-07T22:31:45.180Z,12.20
2022-10-07T22:34:31.019Z,12.10
2022-10-07T22:36:58.263Z,12.10
2022-10-07T22:39:26.452Z,12.10
2022-10-07T22:41:53.931Z,12.10
2022-10-07T22:44:20.891Z,12.10
2022-10-07T22:46:47.850Z,12.10
2022-10-07T22:49:15.066Z,12.10
2022-10-07T22:51:42.727Z,12.10
2022-10-07T22:54:12.771Z,12.10
2022-10-07T22:56:40.078Z,12.00
2022-10-07T22:59:08.613Z,12.00
2022-10-07T23:01:36.567Z,12.00
2022-10-07T23:04:04.540Z,12.00
2022-10-07T23:06:34.546Z,12.00
2022-10-07T23:09:03.284Z,12.00
2022-10-07T23:11:30.854Z,11.90
2022-10-07T23:13:57.896Z,11.90
2022-10-07T23:16:29.457Z,12.00
2022-10-07T23:18:58.291Z,12.00
2022-10-07T23:21:27.790Z,12.00
2022-10-07T23:24:07.223Z,12.10
2022-10-07T23:26:35.995Z,12.10
2022-10-07T23:29:04.075Z,12.10
2022-10-07T23:31:32.655Z,12.10
2022-10-07T23:34:01.557Z,12.20
2022-10-07T23:36:29.510Z,12.10
2022-10-07T23:38:58.795Z,12.20
2022-10-07T23:41:29.442Z,12.20
2022-10-07T23:43:58.882Z,12.20
2022-10-07T23:46:28.305Z,12.20
2022-10-07T23:48:58.538Z,12.10
2022-10-07T23:51:27.912Z,12.10
2022-10-07T23:54:02.101Z,12.10
2022-10-07T23:56:30.038Z,12.10
2022-10-07T23:58:57.527Z,12.10
